VK4VP-5 Buderim QLD AU current weather conditions

sailwx.info

Wind from 214 at 8 knots gusting 16

Air temperature 13.3° C
Dewpoint 12.7° C

Last reported at 2014-Aug-22 20:49 UTC.
Time now 2014-Aug-22 21:44 UTC

Location: S 26°42' E 153°05'.
View on Google Maps.

See reports from other nearby stations

  
Tides and Currents Weather Stations Pressure Air Temp Water Temp Dewpoint Dewpoint Depression Visibility Wind Speed Wind Dir Waves Ship Positions
date/time (UTC)wind fromknots sea level pressurealtimeterstation pressurevisibilityair tempwater tempwave heightnotes
2014-Aug-22 20:49 214 8 gusting 16 13.3
2014-Aug-22 20:39 210 8 gusting 17 13.3
2014-Aug-22 20:29 211 8 gusting 18 13.3
2014-Aug-22 20:19 211 6 gusting 14 13.9
2014-Aug-22 20:09 212 6 gusting 16 13.9
2014-Aug-22 19:59 207 7 gusting 16 13.9
2014-Aug-22 19:49 210 7 gusting 16 13.9
2014-Aug-22 19:39 205 8 gusting 16 13.9
2014-Aug-22 19:29 208 7 gusting 18 13.9
2014-Aug-22 19:19 209 8 gusting 18 13.9
2014-Aug-22 19:09 208 9 gusting 18 13.9
2014-Aug-22 18:59 214 8 gusting 19 13.9
2014-Aug-22 18:49 214 7 gusting 18 13.9
2014-Aug-22 18:39 218 8 gusting 16 13.9
2014-Aug-22 18:29 215 8 gusting 16 13.3
2014-Aug-22 18:19 209 7 gusting 18 13.3
2014-Aug-22 18:09 211 8 gusting 16 13.3
2014-Aug-22 17:59 204 10 gusting 20 13.9
2014-Aug-22 17:49 209 10 gusting 23 13.9
2014-Aug-22 17:39 210 7 gusting 18 13.9
2014-Aug-22 17:29 209 7 gusting 15 13.9
2014-Aug-22 17:19 205 6 gusting 17 13.9
2014-Aug-22 17:09 214 7 gusting 13 13.9
2014-Aug-22 16:59 209 6 gusting 11 13.9
2014-Aug-22 16:49 213 7 gusting 15 13.9
2014-Aug-22 16:39 217 7 gusting 14 13.9
2014-Aug-22 16:29 205 7 gusting 14 13.9
2014-Aug-22 16:19 211 7 gusting 14 13.9
2014-Aug-22 16:09 211 8 gusting 18 13.9
2014-Aug-22 15:59 212 6 gusting 14 13.9
2014-Aug-22 15:49 222 7 gusting 16 13.9
2014-Aug-22 15:39 220 6 gusting 13 13.9
2014-Aug-22 15:29 219 5 gusting 12 13.9
2014-Aug-22 15:19 215 6 gusting 16 13.9
2014-Aug-22 15:09 212 6 gusting 13 13.9
2014-Aug-22 14:59 212 6 gusting 19 13.9
2014-Aug-22 14:49 213 6 gusting 16 13.9
2014-Aug-22 14:39 209 6 gusting 18 13.9
2014-Aug-22 14:29 209 7 gusting 17 13.9
2014-Aug-22 14:19 212 6 gusting 14 13.9
2014-Aug-22 14:09 211 6 gusting 15 13.9
2014-Aug-22 13:59 215 4 gusting 10 13.9
2014-Aug-22 13:49 209 5 gusting 14 13.9
2014-Aug-22 13:39 215 6 gusting 13 13.9
2014-Aug-22 13:29 213 5 gusting 13 13.9
2014-Aug-22 13:19 210 4 gusting 9 13.9
2014-Aug-22 13:09 216 6 gusting 16 13.9
2014-Aug-22 12:59 212 6 gusting 13 13.9
2014-Aug-22 12:49 212 6 gusting 13 13.9
2014-Aug-22 12:39 216 5 gusting 10 13.9
2014-Aug-22 12:29 212 3 gusting 8 13.9
2014-Aug-22 12:19 214 4 gusting 10 13.9
2014-Aug-22 12:09 209 5 gusting 9 13.9
2014-Aug-22 11:59 210 5 gusting 10 13.9
2014-Aug-22 11:49 210 5 gusting 11 13.9
2014-Aug-22 11:34 218 4 gusting 8 13.9
2014-Aug-22 11:24 206 3 gusting 8 13.9
2014-Aug-22 11:11 204 3 gusting 9 13.9
2014-Aug-22 11:01 201 3 gusting 7 13.9
2014-Aug-22 10:54 200 3 gusting 8 13.9
2014-Aug-22 10:41 209 4 gusting 8 13.9
2014-Aug-22 10:34 205 5 gusting 10 13.9
2014-Aug-22 10:21 204 4 gusting 10 14.4
2014-Aug-22 10:11 202 4 gusting 10 14.4
2014-Aug-22 10:01 198 5 gusting 11 14.4
2014-Aug-22 09:54 193 6 gusting 13 14.4
2014-Aug-22 09:41 200 6 gusting 13 14.4
2014-Aug-22 09:34 197 6 gusting 11 14.4
2014-Aug-22 09:21 202 5 gusting 10 15.0
2014-Aug-22 09:14 208 4 gusting 8 15.0
2014-Aug-22 09:01 192 3 gusting 9 15.0
2014-Aug-22 08:54 202 3 gusting 9 15.0
2014-Aug-22 08:41 201 4 gusting 10 15.0
2014-Aug-22 08:34 196 4 gusting 11 15.0
2014-Aug-22 08:21 205 4 gusting 12 15.0
2014-Aug-22 08:11 208 3 gusting 8 15.0
2014-Aug-22 08:01 201 3 gusting 9 15.0
2014-Aug-22 07:51 197 2 gusting 6 15.0
2014-Aug-22 07:44 195 2 gusting 7 15.0
2014-Aug-22 07:31 204 4 gusting 9 15.0
2014-Aug-22 07:24 200 3 gusting 8 15.0
2014-Aug-22 07:14 194 4 gusting 9 15.6
2014-Aug-22 07:01 199 2 gusting 7 15.6
2014-Aug-22 06:54 210 2 gusting 8 15.6
2014-Aug-22 06:41 211 2 gusting 8 15.6
2014-Aug-22 06:31 211 3 gusting 8 15.6
2014-Aug-22 06:21 192 3 gusting 7 15.6
2014-Aug-22 06:14 192 3 gusting 8 15.6
2014-Aug-22 06:01 191 2 gusting 6 15.6
2014-Aug-22 05:54 195 3 gusting 10 16.1
2014-Aug-22 05:41 200 4 gusting 8 15.6
2014-Aug-22 05:31 196 4 gusting 10 16.1
2014-Aug-22 05:21 201 3 gusting 8 16.1
2014-Aug-22 05:14 201 3 gusting 8 16.1
2014-Aug-22 05:04 193 3 gusting 7 16.1
2014-Aug-22 04:54 193 0 gusting 6 16.1
2014-Aug-22 04:41 188 2 gusting 7 15.6
2014-Aug-22 04:31 186 3 gusting 8 15.6
2014-Aug-22 04:21 206 3 gusting 8 15.6
2014-Aug-22 04:11 191 4 gusting 9 15.6
2014-Aug-22 04:04 192 5 gusting 10 15.6
2014-Aug-22 03:54 188 3 gusting 8 15.6
2014-Aug-22 03:44 196 3 gusting 8 15.6
2014-Aug-22 03:34 196 1 gusting 8 15.6
2014-Aug-22 03:21 196 1 gusting 6 15.6
2014-Aug-22 03:11 198 2 gusting 8 15.6
2014-Aug-22 03:04 200 3 gusting 8 15.6
2014-Aug-22 02:54 201 1 gusting 5 15.6
2014-Aug-22 02:41 201 1 gusting 6 15.6
2014-Aug-22 02:31 201 3 gusting 8 15.6
2014-Aug-22 02:24 201 2 gusting 6 15.6
2014-Aug-22 02:14 201 2 gusting 6 15.6
2014-Aug-22 02:04 199 2 gusting 8 15.6
2014-Aug-22 01:54 195 3 gusting 8 15.6
2014-Aug-22 01:44 183 2 gusting 8 16.1
2014-Aug-22 01:34 181 2 gusting 7 16.1
2014-Aug-22 01:24 175 3 gusting 9 16.1
2014-Aug-22 01:14 175 4 gusting 10 15.6
2014-Aug-22 01:01 169 2 gusting 7 15.6
2014-Aug-22 00:51 140 1 gusting 8 15.0
2014-Aug-22 00:41 154 1 gusting 8 15.0
2014-Aug-22 00:34 159 0 gusting 6 15.0
2014-Aug-22 00:21 159 15.0
2014-Aug-22 00:11 156 1 gusting 6 15.0
2014-Aug-22 00:01 160 3 gusting 10 14.4
2014-Aug-21 23:51 196 1 gusting 5 14.4
2014-Aug-21 23:41 225 1 gusting 7 14.4
2014-Aug-21 23:34 228 3 gusting 8 14.4
2014-Aug-21 23:21 227 3 gusting 8 14.4
2014-Aug-21 23:14 226 3 gusting 8 14.4
2014-Aug-21 23:04 228 3 gusting 8 14.4
2014-Aug-21 22:54 226 3 gusting 9 13.9
2014-Aug-21 22:41 209 3 gusting 8 13.9
2014-Aug-21 22:34 204 3 gusting 8 13.9
2014-Aug-21 22:21 195 2 gusting 7 13.9
2014-Aug-21 22:11 192 4 gusting 8 13.9
2014-Aug-21 22:01 194 3 gusting 8 13.9
2014-Aug-21 21:51 206 4 gusting 9 14.4
2014-Aug-21 21:44 208 4 gusting 9 14.4
2014-Aug-21 21:34 211 3 gusting 7 14.4
2014-Aug-21 21:24 213 2 gusting 6 13.9
2014-Aug-21 21:14 214 0 gusting 6 13.9
2014-Aug-21 21:04 206 2 gusting 8 13.9
2014-Aug-21 20:54 171 1 gusting 3 13.9
2014-Aug-21 20:44 171 0 gusting 3 13.9
2014-Aug-21 20:34 171 0 gusting 5 13.3
2014-Aug-21 20:24 170 0 gusting 5 13.3
2014-Aug-21 20:14 193 2 gusting 7 13.3
2014-Aug-21 20:04 209 2 gusting 6 13.3
2014-Aug-21 19:54 209 2 gusting 6 13.3
2014-Aug-21 19:44 209 2 gusting 8 13.3
2014-Aug-21 19:34 207 4 gusting 8 13.3
2014-Aug-21 19:24 205 3 gusting 9 13.3
2014-Aug-21 19:14 205 3 gusting 9 13.3
2014-Aug-21 19:04 208 2 gusting 6 13.3
2014-Aug-21 18:54 206 3 gusting 6 13.9
2014-Aug-21 18:44 204 3 gusting 8 13.9
2014-Aug-21 18:34 212 4 gusting 9 13.9
2014-Aug-21 18:24 223 4 gusting 10 13.9
2014-Aug-21 18:14 222 4 gusting 9 13.9
2014-Aug-21 18:04 215 5 gusting 9 13.9
2014-Aug-21 17:54 207 4 gusting 10 13.9
2014-Aug-21 17:44 210 3 gusting 9 13.9
2014-Aug-21 17:34 209 5 gusting 11 13.9
2014-Aug-21 17:24 210 4 gusting 12 13.9
2014-Aug-21 17:14 215 3 gusting 8 13.9
2014-Aug-21 17:04 217 3 gusting 8 13.9
2014-Aug-21 16:54 204 3 gusting 10 14.4
2014-Aug-21 16:44 209 5 gusting 10 14.4
2014-Aug-21 16:34 212 5 gusting 14 14.4
2014-Aug-21 16:24 205 4 gusting 10 15.0
2014-Aug-21 16:14 212 4 gusting 9 15.0
2014-Aug-21 16:04 216 3 gusting 8 15.0
2014-Aug-21 15:54 207 4 gusting 9 15.0
2014-Aug-21 15:44 205 3 gusting 9 15.0
2014-Aug-21 15:34 210 3 gusting 10 15.0
2014-Aug-21 15:24 209 5 gusting 9 15.0
2014-Aug-21 15:14 208 5 gusting 14 15.0
2014-Aug-21 15:04 212 5 gusting 9 15.0
2014-Aug-21 14:54 219 5 gusting 10 15.0
2014-Aug-21 14:44 221 4 gusting 11 15.0
2014-Aug-21 14:34 215 5 gusting 10 15.0
2014-Aug-21 14:24 218 5 gusting 13 15.0
2014-Aug-21 14:14 221 4 gusting 9 15.0
2014-Aug-21 14:04 221 4 gusting 9 15.0
2014-Aug-21 13:54 215 5 gusting 9 15.6
2014-Aug-21 13:44 211 5 gusting 12 15.6
2014-Aug-21 13:34 187 4 gusting 13 15.6
2014-Aug-21 13:24 164 5 gusting 10 16.1
2014-Aug-21 13:14 170 6 gusting 17 16.1
2014-Aug-21 13:04 179 7 gusting 18 16.1
2014-Aug-21 12:54 172 6 gusting 16 16.1
2014-Aug-21 12:44 172 6 gusting 16 16.1
2014-Aug-21 12:34 190 4 gusting 8 15.6
2014-Aug-21 12:24 187 5 gusting 11 15.0
2014-Aug-21 12:14 159 6 gusting 13 15.0
2014-Aug-21 12:04 153 6 gusting 18 16.1
2014-Aug-21 11:54 179 5 gusting 12 16.1
2014-Aug-21 11:44 169 4 gusting 12 16.1
2014-Aug-21 11:34 153 4 gusting 12 16.1
2014-Aug-21 11:24 172 4 gusting 15 16.1
2014-Aug-21 11:14 175 8 gusting 20 16.1
2014-Aug-21 11:04 197 3 gusting 12 16.1
2014-Aug-21 10:54 194 6 gusting 14 16.7
2014-Aug-21 10:44 198 4 gusting 11 16.1
2014-Aug-21 10:34 199 4 gusting 11 16.1
2014-Aug-21 10:24 194 3 gusting 9 16.1
2014-Aug-21 10:14 200 4 gusting 12 16.1
2014-Aug-21 10:04 202 3 gusting 8 15.6
2014-Aug-21 09:54 214 3 gusting 9 15.6
2014-Aug-21 09:44 200 5 gusting 10 15.6
2014-Aug-21 09:34 196 4 gusting 12 16.1
2014-Aug-21 09:24 199 4 gusting 10 16.1
2014-Aug-21 09:14 208 4 gusting 12 16.1
2014-Aug-21 09:04 195 5 gusting 12 16.1
2014-Aug-21 08:54 201 6 gusting 15 16.7
2014-Aug-21 08:44 191 7 gusting 17 16.7
2014-Aug-21 08:34 186 6 gusting 13 16.7
2014-Aug-21 08:24 186 7 gusting 16 16.7
2014-Aug-21 08:14 176 6 gusting 14 16.7
2014-Aug-21 08:04 182 6 gusting 18 17.2
2014-Aug-21 07:54 179 7 gusting 18 17.2
2014-Aug-21 07:44 171 6 gusting 14 17.2
2014-Aug-21 07:34 177 7 gusting 17 17.2
2014-Aug-21 07:24 182 6 gusting 19 17.2
2014-Aug-21 07:14 186 6 gusting 11 17.2
2014-Aug-21 07:04 181 6 gusting 13 17.2
2014-Aug-21 06:54 183 6 gusting 16 17.8
2014-Aug-21 06:44 186 7 gusting 17 17.8
2014-Aug-21 06:34 184 6 gusting 14 17.2
2014-Aug-21 06:24 175 7 gusting 18 17.2
2014-Aug-21 06:14 175 9 gusting 18 17.2
2014-Aug-21 06:04 171 9 gusting 19 17.8
2014-Aug-21 05:54 175 10 gusting 25 18.9
2014-Aug-21 05:44 175 8 gusting 18 18.9
2014-Aug-21 05:34 179 7 gusting 18 18.9
2014-Aug-21 05:24 176 12 gusting 26 18.9
2014-Aug-21 05:14 170 9 gusting 23 18.9
2014-Aug-21 05:04 178 13 gusting 26 18.9
2014-Aug-21 04:54 167 7 gusting 17 19.4
2014-Aug-21 04:44 175 12 gusting 21 19.4
2014-Aug-21 04:34 174 12 gusting 24 19.4
2014-Aug-21 04:24 178 9 gusting 21 18.9
2014-Aug-21 04:14 175 9 gusting 24 18.9
2014-Aug-21 04:04 173 11 gusting 26 18.9
2014-Aug-21 03:54 173 11 gusting 20 18.9
2014-Aug-21 03:44 173 8 gusting 18 18.9
2014-Aug-21 03:34 176 8 gusting 19 18.9
2014-Aug-21 03:24 170 9 gusting 19 18.9
2014-Aug-21 03:14 181 10 gusting 19 18.9
2014-Aug-21 03:04 182 10 gusting 19 18.9
2014-Aug-21 02:54 167 9 gusting 19 18.9
2014-Aug-21 02:44 161 8 gusting 18 18.9
2014-Aug-21 02:34 166 9 gusting 23 18.9
2014-Aug-21 02:24 166 9 gusting 19 18.9
2014-Aug-21 02:14 161 10 gusting 21 18.9
2014-Aug-21 02:04 170 8 gusting 19 18.9
2014-Aug-21 01:54 176 13 gusting 26 18.3
2014-Aug-21 01:44 170 11 gusting 23 18.9
2014-Aug-21 01:34 170 10 gusting 26 18.9
2014-Aug-21 01:24 177 11 gusting 19 18.9
2014-Aug-21 01:14 176 12 gusting 21 18.3
2014-Aug-21 01:04 169 9 gusting 20 18.3
2014-Aug-21 00:54 163 8 gusting 19 18.3
2014-Aug-21 00:44 182 7 gusting 15 18.3
2014-Aug-21 00:34 185 9 gusting 18 18.3
2014-Aug-21 00:24 173 7 gusting 21 18.3
2014-Aug-21 00:14 185 7 gusting 18 17.8
2014-Aug-21 00:04 186 8 gusting 19 17.8
2014-Aug-20 23:54 198 9 gusting 20 17.8
2014-Aug-20 23:44 179 7 gusting 13 17.8
2014-Aug-20 23:34 191 9 gusting 18 17.2
2014-Aug-20 23:24 186 6 gusting 13 16.7
2014-Aug-20 23:14 181 6 gusting 15 16.7
2014-Aug-20 23:04 189 7 gusting 17 16.1
2014-Aug-20 22:54 185 6 gusting 13 15.6
2014-Aug-20 22:44 187 6 gusting 15 15.6
2014-Aug-20 22:34 195 6 gusting 13 15.6
2014-Aug-20 22:24 178 6 gusting 12 15.6
2014-Aug-20 22:14 197 6 gusting 16 15.6
2014-Aug-20 22:04 202 6 gusting 14 15.6
2014-Aug-20 21:54 201 6 gusting 15 15.6
2014-Aug-20 21:44 199 5 gusting 10 15.0
2014-Aug-20 21:34 219 3 gusting 8 14.4
2014-Aug-20 21:24 220 3 gusting 7 14.4
2014-Aug-20 21:14 225 2 gusting 7 13.9
2014-Aug-20 21:04 225 1 gusting 6 13.3